Time;durP1;ratioP1;P1;durP2;ratioP2;P2;SDS_P1;SDS_P2;PMS_P1;PMS_P2;Temp;Humidity;BMP_temperature;BMP_pressure;BME280_temperature;BME280_humidity;BME280_pressure;Samples;Min_cycle;Max_cycle;Signal;HPM_P1;HPM_P2
2023/09/07 00:01:52;;;;;;;4.97;3.73;;;16.70;95.10;;;;;;4991347;28;20470;-63
2023/09/07 00:04:19;;;;;;;6.10;4.30;;;16.70;94.90;;;;;;4994240;28;20493;-63
2023/09/07 00:06:46;;;;;;;4.60;3.50;;;16.80;94.70;;;;;;4995981;28;20474;-63
2023/09/07 00:09:13;;;;;;;7.33;3.50;;;16.70;94.50;;;;;;4985218;28;20486;-62
2023/09/07 00:11:40;;;;;;;6.30;4.80;;;16.70;94.40;;;;;;4989922;28;20474;-63
2023/09/07 00:14:08;;;;;;;7.10;4.07;;;16.70;94.30;;;;;;4994937;28;20532;-63
2023/09/07 00:16:35;;;;;;;5.40;3.70;;;16.60;94.20;;;;;;4984919;28;21123;-62
2023/09/07 00:19:03;;;;;;;6.90;4.60;;;16.60;94.20;;;;;;5001979;28;20473;-62
2023/09/07 00:21:30;;;;;;;5.00;3.33;;;16.50;94.30;;;;;;4975552;28;20484;-62
2023/09/07 00:23:57;;;;;;;5.40;4.10;;;16.50;94.60;;;;;;5003508;28;20487;-62
2023/09/07 00:26:24;;;;;;;5.40;3.90;;;16.60;94.60;;;;;;4995702;28;20560;-62
2023/09/07 00:28:51;;;;;;;4.90;4.00;;;16.60;94.40;;;;;;4989248;28;20813;-63
2023/09/07 00:31:18;;;;;;;3.87;3.20;;;16.50;94.30;;;;;;4984267;28;20482;-62
2023/09/07 00:33:44;;;;;;;5.80;3.30;;;16.40;94.30;;;;;;4977351;28;20499;-62
2023/09/07 00:36:13;;;;;;;4.63;3.57;;;16.40;94.40;;;;;;5010279;28;20480;-62
2023/09/07 00:38:40;;;;;;;4.93;4.13;;;16.40;94.50;;;;;;4981917;28;20481;-62
2023/09/07 00:41:07;;;;;;;6.30;3.90;;;16.40;94.90;;;;;;4994323;28;21291;-62
2023/09/07 00:43:33;;;;;;;5.27;3.70;;;16.40;94.90;;;;;;4997042;28;20491;-62
2023/09/07 00:46:00;;;;;;;4.57;3.90;;;16.50;94.80;;;;;;4994509;28;20492;-62
2023/09/07 00:48:27;;;;;;;3.20;2.90;;;16.50;94.40;;;;;;4980607;28;20488;-62
2023/09/07 00:50:55;;;;;;;8.67;5.03;;;16.50;94.20;;;;;;4988071;28;20913;-65
2023/09/07 00:53:24;;;;;;;4.60;4.00;;;16.40;94.50;;;;;;4984117;28;20478;-65
2023/09/07 00:55:51;;;;;;;4.33;3.90;;;16.40;94.50;;;;;;4994142;28;20991;-64
2023/09/07 00:58:18;;;;;;;4.40;3.80;;;16.40;94.60;;;;;;4992456;28;20489;-64
2023/09/07 01:00:45;;;;;;;6.00;4.60;;;16.20;94.40;;;;;;4997642;28;20484;-64
2023/09/07 01:03:12;;;;;;;5.00;3.90;;;16.20;94.50;;;;;;5000281;28;20613;-64
2023/09/07 01:05:46;;;;;;;5.10;3.73;;;16.20;95.20;;;;;;4986091;28;20521;-64
2023/09/07 01:08:18;;;;;;;6.10;4.37;;;16.20;95.00;;;;;;4985649;28;20465;-64
2023/09/07 01:10:47;;;;;;;6.80;4.10;;;16.10;94.70;;;;;;5005093;28;20984;-64
2023/09/07 01:13:13;;;;;;;5.43;3.10;;;16.00;94.40;;;;;;4987702;28;20492;-64
2023/09/07 01:15:40;;;;;;;4.30;3.60;;;15.90;94.30;;;;;;4990207;28;20484;-64
2023/09/07 01:18:10;;;;;;;3.80;3.27;;;15.90;94.70;;;;;;4997343;28;20485;-64
2023/09/07 01:20:40;;;;;;;5.50;3.27;;;15.90;94.40;;;;;;4982139;28;20571;-64
2023/09/07 01:23:08;;;;;;;4.13;3.50;;;15.90;94.50;;;;;;4993829;28;20483;-64
2023/09/07 01:25:35;;;;;;;6.17;3.13;;;15.90;94.70;;;;;;4997973;28;21444;-64
2023/09/07 01:28:03;;;;;;;5.40;3.40;;;15.90;94.90;;;;;;4992806;28;20965;-64
2023/09/07 01:30:29;;;;;;;6.07;4.03;;;15.80;95.00;;;;;;4977849;28;20563;-64
2023/09/07 01:32:56;;;;;;;5.80;4.43;;;15.90;95.10;;;;;;5007426;28;20998;-64
2023/09/07 01:35:24;;;;;;;4.77;3.40;;;15.90;95.40;;;;;;5000631;28;20491;-64
2023/09/07 01:37:51;;;;;;;5.37;4.00;;;16.00;95.70;;;;;;4995317;28;20472;-64
2023/09/07 01:40:19;;;;;;;4.10;3.53;;;16.00;95.60;;;;;;5000403;28;20476;-64
2023/09/07 01:42:46;;;;;;;4.80;4.10;;;15.90;94.70;;;;;;4993243;28;20484;-64
2023/09/07 01:45:13;;;;;;;5.70;3.47;;;15.90;94.40;;;;;;4984063;28;20849;-64
2023/09/07 01:47:40;;;;;;;5.90;4.20;;;15.70;94.60;;;;;;4991326;28;20478;-64
2023/09/07 01:50:07;;;;;;;8.83;3.60;;;15.50;94.80;;;;;;4993293;28;20481;-64
2023/09/07 01:52:34;;;;;;;5.00;3.60;;;15.40;94.70;;;;;;5004612;28;21051;-64
2023/09/07 01:55:01;;;;;;;9.17;4.13;;;15.40;94.70;;;;;;4987536;28;21209;-64
2023/09/07 01:57:29;;;;;;;4.47;3.67;;;15.50;95.10;;;;;;4988892;28;20500;-64
2023/09/07 01:59:57;;;;;;;7.37;5.00;;;15.50;95.50;;;;;;4989453;28;20489;-64
2023/09/07 02:02:24;;;;;;;10.80;4.20;;;15.50;95.40;;;;;;4992127;28;20482;-64
2023/09/07 02:04:50;;;;;;;4.30;3.90;;;15.60;95.30;;;;;;4983410;28;20691;-64
2023/09/07 02:07:17;;;;;;;6.17;3.77;;;15.70;95.30;;;;;;5005941;28;20479;-64
2023/09/07 02:09:44;;;;;;;3.57;3.07;;;15.70;95.40;;;;;;4996241;28;20913;-64
2023/09/07 02:12:11;;;;;;;4.37;3.33;;;15.80;95.60;;;;;;4993843;28;20861;-64
2023/09/07 02:14:39;;;;;;;4.60;3.50;;;15.50;94.60;;;;;;4992517;28;20541;-64
2023/09/07 02:17:06;;;;;;;4.83;3.77;;;15.40;94.80;;;;;;4998833;28;20481;-64
2023/09/07 02:19:33;;;;;;;3.53;2.67;;;15.30;94.80;;;;;;4997484;28;20879;-64
2023/09/07 02:22:00;;;;;;;4.70;3.27;;;15.20;94.80;;;;;;4989700;28;20904;-64
2023/09/07 02:24:27;;;;;;;4.27;3.43;;;15.10;94.80;;;;;;4992774;28;21028;-64
2023/09/07 02:26:54;;;;;;;5.00;4.23;;;15.00;94.90;;;;;;5002018;28;20475;-64
2023/09/07 02:29:21;;;;;;;5.93;3.60;;;15.00;95.40;;;;;;5003067;28;20477;-64
2023/09/07 02:31:49;;;;;;;7.27;3.90;;;15.00;95.50;;;;;;4993566;28;20478;-64
2023/09/07 02:34:16;;;;;;;4.80;3.53;;;15.00;95.60;;;;;;5005616;28;20477;-64
2023/09/07 02:36:42;;;;;;;5.97;3.80;;;15.10;95.80;;;;;;4993584;28;20479;-64
2023/09/07 02:39:11;;;;;;;6.83;3.90;;;15.10;95.80;;;;;;4981840;28;20489;-64
2023/09/07 02:41:38;;;;;;;5.13;3.50;;;15.30;95.80;;;;;;4991080;28;20489;-64
2023/09/07 02:44:05;;;;;;;5.57;3.23;;;15.30;95.80;;;;;;4988455;28;20490;-64
2023/09/07 02:46:32;;;;;;;5.07;3.43;;;15.20;95.20;;;;;;5002353;28;20481;-64
2023/09/07 02:49:00;;;;;;;4.37;2.90;;;15.20;94.90;;;;;;4989974;28;20482;-64
2023/09/07 02:51:27;;;;;;;3.70;3.10;;;15.10;94.50;;;;;;4996485;28;20486;-64
2023/09/07 02:53:57;;;;;;;3.70;3.30;;;15.10;94.80;;;;;;4997501;28;20828;-64
2023/09/07 02:56:25;;;;;;;9.53;4.00;;;15.10;94.60;;;;;;4994456;28;20477;-64
2023/09/07 02:58:51;;;;;;;4.20;3.77;;;15.00;94.50;;;;;;4996132;28;20915;-64
2023/09/07 03:01:21;;;;;;;5.40;3.50;;;15.00;94.60;;;;;;4996170;28;20836;-64
2023/09/07 03:03:48;;;;;;;9.43;3.10;;;15.00;94.60;;;;;;4996025;28;20886;-64
2023/09/07 03:06:17;;;;;;;3.97;2.83;;;14.90;94.70;;;;;;4988833;28;20481;-64
2023/09/07 03:08:44;;;;;;;5.33;3.10;;;14.80;94.60;;;;;;4999609;28;21072;-64
2023/09/07 03:11:11;;;;;;;5.97;3.30;;;14.90;94.90;;;;;;4999821;28;20482;-64
2023/09/07 03:13:38;;;;;;;10.73;4.83;;;14.80;94.80;;;;;;5000708;28;20486;-64
2023/09/07 03:16:06;;;;;;;5.97;3.63;;;14.80;95.00;;;;;;4994030;28;20484;-64
2023/09/07 03:18:33;;;;;;;9.57;3.27;;;14.80;94.70;;;;;;4985507;28;20489;-64
2023/09/07 03:21:02;;;;;;;5.03;3.50;;;14.80;94.50;;;;;;5004450;28;20484;-61
2023/09/07 03:23:32;;;;;;;7.40;3.47;;;14.70;94.40;;;;;;4999444;28;20550;-64
2023/09/07 03:25:59;;;;;;;6.10;3.20;;;14.60;94.50;;;;;;4987715;28;20485;-64
2023/09/07 03:28:26;;;;;;;4.20;3.03;;;14.50;94.80;;;;;;4973621;28;20479;-64
2023/09/07 03:30:54;;;;;;;5.73;3.63;;;14.40;94.70;;;;;;5008214;28;20557;-64
2023/09/07 03:33:20;;;;;;;4.57;3.03;;;14.40;94.80;;;;;;4989150;28;20480;-64
2023/09/07 03:35:47;;;;;;;8.40;4.10;;;14.40;94.90;;;;;;4989235;28;20469;-64
2023/09/07 03:38:14;;;;;;;5.43;3.30;;;14.40;94.90;;;;;;4988729;28;20488;-64
2023/09/07 03:40:43;;;;;;;5.37;3.40;;;14.40;94.90;;;;;;4986960;28;20483;-64
2023/09/07 03:43:10;;;;;;;5.80;3.47;;;14.40;95.10;;;;;;5001015;28;20866;-64
2023/09/07 03:45:37;;;;;;;5.90;2.33;;;14.40;95.00;;;;;;4996340;28;20483;-64
2023/09/07 03:48:06;;;;;;;4.40;3.07;;;14.40;95.10;;;;;;4999963;28;20482;-64
2023/09/07 03:50:33;;;;;;;3.17;2.87;;;14.40;95.10;;;;;;4989796;28;20489;-64
2023/09/07 03:53:00;;;;;;;4.37;3.37;;;14.40;95.50;;;;;;4997815;28;20488;-64
2023/09/07 03:55:27;;;;;;;6.53;4.00;;;14.40;95.50;;;;;;4989223;28;20603;-64
2023/09/07 03:57:56;;;;;;;6.00;3.00;;;14.40;95.60;;;;;;4990754;28;20482;-64
2023/09/07 04:00:23;;;;;;;4.90;3.50;;;14.40;95.80;;;;;;4988252;28;20484;-64
2023/09/07 04:02:50;;;;;;;4.07;2.20;;;14.50;96.00;;;;;;4984193;28;20501;-64
2023/09/07 04:05:17;;;;;;;3.73;2.60;;;14.50;95.80;;;;;;4989436;28;20488;-64
2023/09/07 04:07:44;;;;;;;4.20;3.27;;;14.40;95.10;;;;;;4982305;28;21286;-64
2023/09/07 04:10:11;;;;;;;7.73;2.87;;;14.40;95.10;;;;;;4989704;28;20477;-64
2023/09/07 04:12:37;;;;;;;4.70;3.83;;;14.30;94.90;;;;;;4985612;28;20486;-64
2023/09/07 04:15:07;;;;;;;4.43;2.73;;;14.30;95.20;;;;;;4986312;28;21036;-64
2023/09/07 04:17:40;;;;;;;6.93;3.20;;;14.30;95.10;;;;;;4996007;28;20485;-64
2023/09/07 04:20:08;;;;;;;5.10;4.20;;;14.20;94.90;;;;;;4990509;28;20889;-64
2023/09/07 04:22:35;;;;;;;4.70;2.90;;;14.10;95.00;;;;;;4984303;28;20485;-64
2023/09/07 04:25:02;;;;;;;6.07;4.30;;;14.10;95.00;;;;;;4972164;28;20484;-64
2023/09/07 04:27:28;;;;;;;6.57;3.67;;;14.00;94.80;;;;;;4995520;28;20520;-64
2023/09/07 04:29:55;;;;;;;5.60;3.20;;;14.00;94.70;;;;;;4977358;28;20477;-64
2023/09/07 04:32:24;;;;;;;6.00;3.43;;;14.00;95.00;;;;;;5002617;28;20757;-61
2023/09/07 04:34:54;;;;;;;3.40;2.87;;;14.00;95.30;;;;;;5002105;28;20489;-62
2023/09/07 04:37:21;;;;;;;8.43;3.60;;;14.00;95.00;;;;;;4972127;28;20493;-61
2023/09/07 04:39:51;;;;;;;2.87;2.40;;;14.00;94.90;;;;;;4996304;28;20475;-62
2023/09/07 04:42:18;;;;;;;3.10;2.33;;;13.90;94.80;;;;;;4996732;28;20486;-62
2023/09/07 04:44:45;;;;;;;6.70;3.20;;;13.70;94.70;;;;;;4992615;28;20480;-62
2023/09/07 04:47:11;;;;;;;3.67;3.00;;;13.50;95.00;;;;;;4977680;28;20478;-61
2023/09/07 04:49:40;;;;;;;3.20;2.90;;;13.50;95.20;;;;;;4974877;28;20782;-61
2023/09/07 04:52:08;;;;;;;5.50;2.97;;;13.50;95.90;;;;;;4996941;28;21120;-61
2023/09/07 04:54:35;;;;;;;6.83;3.53;;;13.60;95.80;;;;;;4975938;28;20523;-62
2023/09/07 04:57:02;;;;;;;4.17;2.80;;;13.60;95.70;;;;;;5001596;28;21002;-61
2023/09/07 04:59:29;;;;;;;3.63;2.67;;;13.60;95.70;;;;;;4983863;28;20481;-61
2023/09/07 05:01:55;;;;;;;3.90;3.20;;;13.70;95.80;;;;;;4989397;28;20491;-62
2023/09/07 05:04:22;;;;;;;4.37;2.93;;;13.70;95.70;;;;;;5002049;28;20485;-61
2023/09/07 05:06:51;;;;;;;6.80;2.90;;;13.80;95.40;;;;;;4992962;28;21276;-62
2023/09/07 05:09:17;;;;;;;4.40;2.80;;;13.70;95.20;;;;;;4989804;28;20485;-62
2023/09/07 05:11:44;;;;;;;4.83;3.00;;;13.70;95.60;;;;;;4989207;28;21011;-61
2023/09/07 05:14:11;;;;;;;5.30;3.20;;;13.70;95.30;;;;;;4985776;28;20932;-62
2023/09/07 05:16:38;;;;;;;4.13;3.10;;;13.70;95.40;;;;;;4982236;28;20834;-62
2023/09/07 05:19:05;;;;;;;5.00;3.60;;;13.70;95.30;;;;;;5005798;28;20488;-61
2023/09/07 05:21:32;;;;;;;4.67;3.10;;;13.70;95.20;;;;;;4988006;28;20552;-62
2023/09/07 05:24:00;;;;;;;3.80;3.40;;;13.70;95.00;;;;;;4997520;28;20493;-62
2023/09/07 05:26:28;;;;;;;5.77;4.30;;;13.60;94.90;;;;;;4988925;28;20494;-60
2023/09/07 05:28:54;;;;;;;2.87;2.20;;;13.50;95.10;;;;;;4991187;28;20494;-62
2023/09/07 05:31:21;;;;;;;4.27;3.20;;;13.40;95.30;;;;;;4983502;28;20477;-62
2023/09/07 05:33:48;;;;;;;5.20;3.03;;;13.40;95.40;;;;;;5013845;28;20481;-62
2023/09/07 05:36:15;;;;;;;3.20;2.70;;;13.50;95.60;;;;;;4998885;28;21029;-62
2023/09/07 05:38:42;;;;;;;4.30;3.20;;;13.50;95.90;;;;;;4998755;28;21009;-62
2023/09/07 05:41:10;;;;;;;4.80;3.67;;;13.60;96.00;;;;;;4981206;28;20823;-64
2023/09/07 05:43:37;;;;;;;12.60;4.43;;;13.70;95.90;;;;;;4999365;28;21250;-64
2023/09/07 05:46:04;;;;;;;6.37;3.53;;;13.80;95.90;;;;;;4992852;28;20823;-64
2023/09/07 05:48:30;;;;;;;13.83;3.90;;;13.80;95.80;;;;;;4983995;28;20489;-64
2023/09/07 05:51:00;;;;;;;6.93;3.70;;;13.90;95.70;;;;;;4985065;28;21010;-63
2023/09/07 05:53:27;;;;;;;4.03;3.47;;;13.90;95.90;;;;;;4979298;28;20477;-62
2023/09/07 05:55:54;;;;;;;6.60;3.83;;;14.00;96.10;;;;;;5006222;28;20860;-61
2023/09/07 05:58:22;;;;;;;4.27;3.03;;;14.00;96.60;;;;;;4986086;28;20794;-62
2023/09/07 06:00:49;;;;;;;4.73;3.37;;;14.10;97.10;;;;;;4975831;28;20476;-64
2023/09/07 06:03:16;;;;;;;7.30;4.20;;;14.20;97.30;;;;;;4999877;28;21004;-62
2023/09/07 06:05:44;;;;;;;5.27;3.67;;;14.40;97.50;;;;;;4995969;28;21125;-62
2023/09/07 06:08:11;;;;;;;7.23;4.20;;;14.40;97.30;;;;;;4986498;28;20580;-62
2023/09/07 06:10:38;;;;;;;5.20;4.03;;;14.60;97.40;;;;;;4980922;28;20479;-62
2023/09/07 06:13:04;;;;;;;4.97;3.83;;;14.60;97.60;;;;;;4995882;28;21307;-63
2023/09/07 06:15:33;;;;;;;4.77;3.50;;;14.80;97.80;;;;;;4991458;28;20956;-62
2023/09/07 06:18:00;;;;;;;7.73;4.20;;;14.90;98.10;;;;;;4985340;28;20495;-62
2023/09/07 06:20:26;;;;;;;6.00;4.27;;;15.10;98.60;;;;;;5012369;28;20480;-63
2023/09/07 06:22:53;;;;;;;7.00;4.90;;;15.30;98.60;;;;;;4997615;28;20481;-62
2023/09/07 06:25:21;;;;;;;10.03;6.00;;;15.50;99.00;;;;;;4991610;28;20485;-63
2023/09/07 06:27:48;;;;;;;8.20;5.67;;;15.70;99.10;;;;;;4993206;28;20492;-63
2023/09/07 06:30:15;;;;;;;9.80;6.70;;;16.00;99.70;;;;;;5002447;28;20482;-63
2023/09/07 06:32:44;;;;;;;7.83;5.30;;;16.20;99.30;;;;;;4999944;28;20482;-62
2023/09/07 06:35:11;;;;;;;7.57;6.17;;;16.40;99.10;;;;;;4997276;28;20480;-62
2023/09/07 06:37:40;;;;;;;12.30;5.90;;;16.50;99.10;;;;;;4995641;28;20478;-62
2023/09/07 06:40:09;;;;;;;8.80;6.00;;;16.70;99.20;;;;;;4972772;28;20474;-63
2023/09/07 06:42:36;;;;;;;7.23;5.70;;;17.20;99.90;;;;;;4997682;28;20678;-63
2023/09/07 06:45:05;;;;;;;15.33;9.57;;;18.00;99.90;;;;;;4996077;28;20572;-62
2023/09/07 06:47:32;;;;;;;11.10;8.77;;;19.30;99.80;;;;;;4994489;28;20496;-63
2023/09/07 06:50:00;;;;;;;15.70;6.73;;;20.70;98.30;;;;;;4998736;28;20473;-63
2023/09/07 06:52:27;;;;;;;11.10;6.20;;;22.00;96.10;;;;;;4993786;28;20743;-63
2023/09/07 06:54:54;;;;;;;8.20;5.50;;;23.20;95.00;;;;;;4997071;28;20969;-63
2023/09/07 06:57:22;;;;;;;7.50;5.23;;;24.00;93.30;;;;;;4994894;28;20482;-63
2023/09/07 06:59:49;;;;;;;6.17;5.57;;;24.80;92.60;;;;;;4975894;28;20473;-64
2023/09/07 07:02:16;;;;;;;8.83;5.03;;;25.30;91.80;;;;;;4993799;28;20888;-63
2023/09/07 07:04:43;;;;;;;7.27;5.60;;;25.80;91.20;;;;;;4994411;28;20480;-63
2023/09/07 07:07:12;;;;;;;6.63;5.30;;;26.10;90.60;;;;;;4976525;28;20891;-64
2023/09/07 07:09:38;;;;;;;8.30;6.37;;;26.40;90.40;;;;;;4992300;28;20979;-64
2023/09/07 07:12:06;;;;;;;5.20;4.13;;;26.60;90.10;;;;;;4996775;28;20473;-66
2023/09/07 07:14:33;;;;;;;7.13;5.20;;;26.80;90.30;;;;;;4992111;28;20509;-66
2023/09/07 07:17:01;;;;;;;10.33;4.90;;;26.90;90.00;;;;;;4988527;28;21022;-66
2023/09/07 07:19:28;;;;;;;6.80;4.77;;;27.00;90.50;;;;;;4977545;28;20513;-66
2023/09/07 07:21:55;;;;;;;8.43;5.50;;;27.10;90.30;;;;;;5005770;28;20493;-66
2023/09/07 07:24:24;;;;;;;6.00;5.40;;;27.10;90.30;;;;;;4995926;28;20493;-66
2023/09/07 07:26:51;;;;;;;7.73;5.17;;;27.10;90.40;;;;;;4987781;28;20855;-67
2023/09/07 07:29:19;;;;;;;6.60;4.90;;;27.10;89.70;;;;;;4984929;28;20478;-66
2023/09/07 07:31:46;;;;;;;10.33;4.90;;;27.00;90.10;;;;;;4987751;28;20479;-66
2023/09/07 07:34:13;;;;;;;5.83;4.90;;;27.00;90.10;;;;;;4990836;28;20487;-66
2023/09/07 07:36:40;;;;;;;6.30;4.90;;;26.90;90.90;;;;;;4987583;28;20485;-67
2023/09/07 07:39:08;;;;;;;5.43;4.53;;;26.80;89.40;;;;;;4984249;28;20810;-67
2023/09/07 07:41:37;;;;;;;7.40;4.73;;;26.70;91.00;;;;;;4990383;28;20489;-67
2023/09/07 07:44:05;;;;;;;6.13;4.83;;;26.70;90.90;;;;;;5008254;28;20481;-67
2023/09/07 07:46:31;;;;;;;9.80;5.60;;;26.70;90.60;;;;;;4978247;28;20470;-66
2023/09/07 07:48:58;;;;;;;5.73;4.50;;;26.60;90.40;;;;;;4999399;28;20504;-67
2023/09/07 07:51:26;;;;;;;9.20;5.53;;;26.60;90.60;;;;;;4999095;28;20477;-67
2023/09/07 07:53:55;;;;;;;7.53;5.50;;;26.70;91.20;;;;;;4987385;28;20483;-67
2023/09/07 07:56:21;;;;;;;5.70;4.13;;;26.70;91.10;;;;;;4989784;28;20481;-67
2023/09/07 07:58:51;;;;;;;5.77;4.93;;;26.70;91.70;;;;;;4991538;28;20481;-67
2023/09/07 08:01:20;;;;;;;6.73;4.90;;;26.70;91.50;;;;;;4987280;28;20474;-67
2023/09/07 08:03:47;;;;;;;6.40;4.80;;;26.80;90.80;;;;;;4996198;28;20799;-67
2023/09/07 08:06:14;;;;;;;4.87;3.90;;;26.80;91.20;;;;;;4991571;28;20492;-67
2023/09/07 08:08:41;;;;;;;5.30;4.50;;;26.90;91.50;;;;;;4991513;28;20508;-67
2023/09/07 08:11:08;;;;;;;4.77;4.17;;;27.00;91.40;;;;;;4992921;28;20487;-66
2023/09/07 08:13:36;;;;;;;4.67;4.20;;;27.00;91.30;;;;;;4999907;28;20763;-67
2023/09/07 08:16:06;;;;;;;5.17;4.33;;;27.00;91.20;;;;;;4997836;28;20476;-66
2023/09/07 08:18:34;;;;;;;5.03;3.80;;;27.10;91.40;;;;;;4986950;28;20978;-66
2023/09/07 08:21:02;;;;;;;3.80;3.40;;;27.10;90.90;;;;;;4998012;28;20485;-68
2023/09/07 08:23:29;;;;;;;4.87;4.20;;;27.10;90.20;;;;;;4975096;28;21568;-68
2023/09/07 08:25:55;;;;;;;5.80;4.50;;;27.10;90.50;;;;;;5004925;28;21019;-67
2023/09/07 08:28:23;;;;;;;6.03;4.67;;;27.00;90.10;;;;;;4983653;28;21327;-67
2023/09/07 08:30:53;;;;;;;12.00;4.77;;;27.00;90.60;;;;;;4994930;28;20469;-67
2023/09/07 08:33:22;;;;;;;6.60;4.53;;;27.00;90.60;;;;;;4999481;28;20525;-66
2023/09/07 08:35:53;;;;;;;7.50;3.73;;;27.00;90.00;;;;;;4989801;28;20494;-67
2023/09/07 08:38:22;;;;;;;5.50;4.50;;;27.10;91.10;;;;;;4990167;28;20481;-67
2023/09/07 08:40:49;;;;;;;5.27;4.17;;;27.10;90.50;;;;;;4987927;28;20591;-67
2023/09/07 08:43:18;;;;;;;7.60;4.60;;;27.20;90.80;;;;;;4998965;28;20481;-67
2023/09/07 08:45:51;;;;;;;7.20;4.53;;;27.20;90.40;;;;;;4988216;28;20484;-67
2023/09/07 08:48:20;;;;;;;5.33;4.60;;;27.30;90.50;;;;;;4982546;28;20485;-67
2023/09/07 08:50:52;;;;;;;4.43;4.03;;;27.40;90.90;;;;;;4993770;28;20829;-67
2023/09/07 08:53:20;;;;;;;5.90;4.30;;;27.40;89.90;;;;;;4996834;28;20457;-67
2023/09/07 08:55:47;;;;;;;5.43;4.90;;;27.50;90.40;;;;;;4993637;28;20505;-67
2023/09/07 08:58:14;;;;;;;5.60;4.97;;;27.50;90.30;;;;;;4988544;28;20485;-67
2023/09/07 09:00:43;;;;;;;5.70;4.33;;;27.50;90.50;;;;;;4989877;28;20497;-68
2023/09/07 09:03:11;;;;;;;4.60;4.20;;;27.60;90.30;;;;;;4994393;28;20998;-67
2023/09/07 09:05:40;;;;;;;4.83;4.33;;;27.70;90.70;;;;;;4974866;28;20485;-67
2023/09/07 09:08:09;;;;;;;6.60;4.43;;;27.80;90.00;;;;;;4976966;28;20496;-67
2023/09/07 09:10:40;;;;;;;7.83;4.80;;;27.90;89.90;;;;;;4992710;28;20540;-67
2023/09/07 09:13:06;;;;;;;6.07;4.50;;;27.90;90.10;;;;;;4991483;28;20966;-66
2023/09/07 09:15:33;;;;;;;5.87;4.80;;;28.00;90.90;;;;;;4992865;28;20951;-67
2023/09/07 09:18:11;;;;;;;6.20;5.20;;;28.20;90.30;;;;;;4987012;28;21222;-68
2023/09/07 09:20:39;;;;;;;5.63;4.67;;;28.20;90.10;;;;;;4979939;28;20524;-69
2023/09/07 09:23:07;;;;;;;5.37;4.87;;;28.30;90.30;;;;;;5001500;28;20839;-66
2023/09/07 09:25:35;;;;;;;4.90;3.87;;;28.30;89.80;;;;;;4995660;28;20452;-67
2023/09/07 09:28:02;;;;;;;4.87;4.33;;;28.50;90.90;;;;;;4987448;28;20527;-67
2023/09/07 09:30:29;;;;;;;9.80;5.23;;;28.50;89.40;;;;;;4997475;28;20509;-68
2023/09/07 09:33:53;;;;;;;6.33;4.33;;;28.60;89.00;;;;;;4989129;28;20829;-68
2023/09/07 09:36:21;;;;;;;5.10;4.70;;;28.60;89.00;;;;;;4972125;28;20565;-68
2023/09/07 09:38:50;;;;;;;5.70;4.73;;;28.70;89.00;;;;;;5012345;28;20834;-67
2023/09/07 09:41:19;;;;;;;6.67;5.07;;;28.80;90.30;;;;;;4995686;28;20489;-67
2023/09/07 09:43:49;;;;;;;5.97;4.57;;;28.80;87.80;;;;;;5002397;28;20497;-68
2023/09/07 09:46:16;;;;;;;6.10;4.97;;;28.90;89.70;;;;;;4992565;28;20474;-69
2023/09/07 09:48:43;;;;;;;7.30;5.07;;;29.00;89.20;;;;;;4974266;28;20513;-68
2023/09/07 09:51:11;;;;;;;4.90;4.50;;;29.10;89.80;;;;;;4984838;28;20480;-67
2023/09/07 09:53:38;;;;;;;5.53;4.77;;;29.10;89.80;;;;;;4999901;28;20489;-67
2023/09/07 09:56:05;;;;;;;6.20;4.90;;;29.10;88.70;;;;;;4981109;28;20482;-67
2023/09/07 09:58:34;;;;;;;7.53;4.80;;;29.20;90.30;;;;;;4989188;28;20497;-68
2023/09/07 10:01:05;;;;;;;4.87;4.30;;;29.30;88.60;;;;;;4995437;28;20885;-67
2023/09/07 10:03:34;;;;;;;6.17;4.93;;;29.40;88.80;;;;;;4999102;28;20448;-67
2023/09/07 10:06:09;;;;;;;5.20;4.27;;;29.60;90.40;;;;;;4989126;28;20453;-67
2023/09/07 10:08:36;;;;;;;7.93;5.70;;;29.70;90.00;;;;;;4992595;28;20488;-67
2023/09/07 10:11:08;;;;;;;5.03;4.53;;;29.70;88.50;;;;;;4995298;28;20456;-66
2023/09/07 10:13:36;;;;;;;6.10;4.43;;;29.90;90.40;;;;;;4987223;28;20587;-67
2023/09/07 10:16:07;;;;;;;5.43;4.80;;;30.00;89.10;;;;;;4988741;28;20492;-67
2023/09/07 10:18:35;;;;;;;4.30;3.80;;;30.10;87.10;;;;;;4989823;28;20568;-67
2023/09/07 10:21:02;;;;;;;5.57;5.07;;;30.20;88.40;;;;;;4988208;28;20508;-67
2023/09/07 10:23:40;;;;;;;9.30;5.23;;;30.30;87.80;;;;;;4998198;28;20470;-67
2023/09/07 10:26:17;;;;;;;7.87;6.60;;;30.40;88.40;;;;;;4973976;28;20447;-66
2023/09/07 10:28:46;;;;;;;7.07;5.27;;;30.40;86.00;;;;;;4985338;28;20690;-67
2023/09/07 10:31:18;;;;;;;4.97;4.53;;;30.30;86.30;;;;;;4997837;28;20471;-66
2023/09/07 10:33:46;;;;;;;5.27;4.60;;;30.00;83.00;;;;;;4988983;28;21066;-67
2023/09/07 10:36:22;;;;;;;7.87;4.67;;;30.10;86.80;;;;;;4997870;28;20445;-66
2023/09/07 10:38:49;;;;;;;5.10;4.60;;;30.20;87.00;;;;;;4978703;28;20473;-67
2023/09/07 10:41:16;;;;;;;9.10;4.60;;;30.30;86.90;;;;;;5001390;28;20489;-66
2023/09/07 10:43:50;;;;;;;5.30;4.80;;;30.30;85.90;;;;;;5001109;28;20481;-67
2023/09/07 10:46:19;;;;;;;5.43;4.93;;;30.30;85.40;;;;;;4985893;28;20987;-67
2023/09/07 10:48:49;;;;;;;4.97;4.47;;;30.50;87.50;;;;;;5004470;28;21830;-67
2023/09/07 10:51:16;;;;;;;6.30;4.27;;;30.70;86.90;;;;;;4991164;28;20447;-67
2023/09/07 10:53:43;;;;;;;7.13;4.83;;;30.80;85.30;;;;;;4995897;28;20471;-67
2023/09/07 10:56:10;;;;;;;6.23;4.77;;;30.90;85.60;;;;;;4995601;28;21333;-67
2023/09/07 10:58:40;;;;;;;6.70;4.97;;;31.10;88.00;;;;;;4988913;28;20980;-67
2023/09/07 11:01:09;;;;;;;4.60;3.80;;;31.20;87.90;;;;;;4995676;28;20543;-67
2023/09/07 11:03:38;;;;;;;5.17;4.27;;;31.30;86.20;;;;;;4981206;28;20903;-67
2023/09/07 11:06:09;;;;;;;4.63;4.23;;;31.30;82.20;;;;;;4994460;28;20462;-67
2023/09/07 11:08:36;;;;;;;6.57;5.90;;;31.00;79.70;;;;;;5004906;28;21147;-67
2023/09/07 11:11:03;;;;;;;5.47;4.50;;;31.10;83.80;;;;;;4994163;28;20452;-67
2023/09/07 11:13:31;;;;;;;5.03;4.53;;;31.20;84.30;;;;;;4996844;28;20503;-68
2023/09/07 11:15:59;;;;;;;6.30;5.00;;;31.10;81.20;;;;;;4992750;28;20453;-67
2023/09/07 11:18:27;;;;;;;6.00;4.20;;;31.10;83.30;;;;;;4987627;28;21501;-67
2023/09/07 11:20:55;;;;;;;7.27;4.30;;;31.30;81.70;;;;;;4988728;28;20959;-68
2023/09/07 11:23:24;;;;;;;4.33;3.93;;;31.40;81.00;;;;;;4991171;28;20444;-67
2023/09/07 11:25:51;;;;;;;4.63;4.20;;;31.20;81.60;;;;;;4999041;28;20494;-67
2023/09/07 11:28:19;;;;;;;5.30;4.77;;;31.20;81.60;;;;;;4994071;28;20473;-67
2023/09/07 11:30:53;;;;;;;11.73;4.87;;;30.80;80.90;;;;;;4993443;28;20490;-67
2023/09/07 11:33:21;;;;;;;4.70;4.30;;;30.80;81.00;;;;;;4991417;28;20452;-68
2023/09/07 11:35:49;;;;;;;4.77;4.33;;;30.60;80.90;;;;;;4998071;28;20447;-68
2023/09/07 11:38:18;;;;;;;4.80;4.33;;;30.50;84.40;;;;;;4997264;28;20462;-67
2023/09/07 11:40:45;;;;;;;3.77;3.37;;;30.80;86.60;;;;;;4998197;28;20445;-67
2023/09/07 11:43:13;;;;;;;5.30;4.80;;;31.00;81.50;;;;;;4989980;28;20480;-68
2023/09/07 11:45:40;;;;;;;4.70;4.27;;;31.20;84.50;;;;;;4989070;28;20496;-68
2023/09/07 11:48:08;;;;;;;5.00;4.60;;;31.40;79.80;;;;;;4991518;28;20475;-67
2023/09/07 11:50:36;;;;;;;4.90;4.40;;;31.50;82.50;;;;;;5002912;28;20481;-67
2023/09/07 11:53:06;;;;;;;4.33;3.93;;;31.50;82.30;;;;;;4976934;28;20479;-68
2023/09/07 11:55:32;;;;;;;5.00;4.20;;;31.60;80.30;;;;;;4993624;28;20930;-67
2023/09/07 11:57:59;;;;;;;5.93;4.87;;;31.60;81.90;;;;;;4989668;28;20867;-68
2023/09/07 12:00:26;;;;;;;5.83;4.63;;;31.70;78.00;;;;;;5000316;28;20461;-68
2023/09/07 12:02:53;;;;;;;4.40;3.67;;;31.90;80.40;;;;;;4984275;28;20886;-67
2023/09/07 12:05:20;;;;;;;4.93;4.40;;;32.10;79.90;;;;;;4989952;28;21260;-68
2023/09/07 12:07:48;;;;;;;4.37;3.97;;;32.40;81.30;;;;;;4993771;28;20544;-68
2023/09/07 12:10:16;;;;;;;4.73;4.23;;;32.80;81.20;;;;;;4963293;28;20498;-68
2023/09/07 12:12:44;;;;;;;5.30;4.40;;;33.10;82.50;;;;;;4994966;28;20456;-69
2023/09/07 12:15:12;;;;;;;4.67;4.27;;;33.30;81.10;;;;;;4996033;28;21325;-68
2023/09/07 12:17:39;;;;;;;8.43;4.43;;;33.30;78.80;;;;;;4998076;28;20481;-68
2023/09/07 12:20:09;;;;;;;4.63;4.23;;;33.50;82.40;;;;;;4986664;28;20540;-68
2023/09/07 12:22:37;;;;;;;4.07;3.67;;;33.60;80.00;;;;;;4978997;28;20875;-68
2023/09/07 12:25:06;;;;;;;3.67;3.20;;;33.50;80.70;;;;;;4993874;28;20460;-68
2023/09/07 12:27:35;;;;;;;6.30;4.23;;;33.50;81.40;;;;;;4992685;28;20581;-68
2023/09/07 12:30:05;;;;;;;5.67;4.53;;;33.70;82.40;;;;;;4985518;28;20478;-68
2023/09/07 12:32:32;;;;;;;5.37;4.87;;;33.50;79.30;;;;;;4989051;28;20485;-68
2023/09/07 12:35:00;;;;;;;4.53;4.00;;;33.70;81.30;;;;;;4992090;28;20501;-68
2023/09/07 12:37:27;;;;;;;5.03;4.53;;;33.40;74.40;;;;;;4994152;28;20464;-68
2023/09/07 12:39:54;;;;;;;5.33;4.40;;;33.50;81.70;;;;;;4992144;28;20467;-68
2023/09/07 12:42:20;;;;;;;4.97;4.47;;;33.70;76.50;;;;;;4994942;28;20449;-68
2023/09/07 12:44:49;;;;;;;5.13;4.63;;;33.80;80.10;;;;;;4995069;28;20492;-68
2023/09/07 12:47:16;;;;;;;5.03;4.63;;;33.70;78.80;;;;;;4988435;28;20452;-68
2023/09/07 12:49:42;;;;;;;4.50;4.00;;;33.50;76.20;;;;;;4997301;28;20485;-68